createdAt,value
2022-08-03T00:01:45.723Z,100.00
2022-08-03T00:04:13.968Z,100.00
2022-08-03T00:06:42.005Z,100.00
2022-08-03T00:09:10.417Z,100.00
2022-08-03T00:11:38.591Z,100.00
2022-08-03T00:14:08.854Z,100.00
2022-08-03T00:16:38.558Z,100.00
2022-08-03T00:19:06.624Z,100.00
2022-08-03T00:21:34.661Z,100.00
2022-08-03T00:24:02.766Z,100.00
2022-08-03T00:26:31.779Z,100.00
2022-08-03T00:28:59.910Z,100.00
2022-08-03T00:31:51.444Z,100.00
2022-08-03T00:34:17.380Z,100.00
2022-08-03T00:36:57.922Z,100.00
2022-08-03T00:39:25.939Z,100.00
2022-08-03T00:41:54.140Z,100.00
2022-08-03T00:44:22.166Z,100.00
2022-08-03T00:46:50.288Z,100.00
2022-08-03T00:49:19.769Z,100.00
2022-08-03T00:51:48.867Z,100.00
2022-08-03T00:54:17.243Z,100.00
2022-08-03T00:57:00.066Z,100.00
2022-08-03T00:59:28.803Z,100.00
2022-08-03T01:01:57.196Z,100.00
2022-08-03T01:04:26.762Z,100.00
2022-08-03T01:07:04.960Z,100.00
2022-08-03T01:09:48.642Z,100.00
2022-08-03T01:12:23.592Z,100.00
2022-08-03T01:14:59.737Z,100.00
2022-08-03T01:17:35.564Z,100.00
2022-08-03T01:20:08.564Z,100.00
2022-08-03T01:22:50.751Z,100.00
2022-08-03T01:25:33.958Z,100.00
2022-08-03T01:28:21.159Z,100.00
2022-08-03T01:30:53.873Z,100.00
2022-08-03T01:33:23.798Z,100.00
2022-08-03T01:36:00.169Z,100.00
2022-08-03T01:38:32.398Z,100.00
2022-08-03T01:41:05.755Z,100.00
2022-08-03T01:44:27.652Z,100.00
2022-08-03T01:46:26.211Z,100.00
2022-08-03T01:48:56.334Z,100.00
2022-08-03T01:51:24.634Z,100.00
2022-08-03T01:54:14.691Z,100.00
2022-08-03T01:56:46.569Z,100.00
2022-08-03T01:59:17.680Z,100.00
2022-08-03T02:02:27.795Z,100.00
2022-08-03T02:04:39.687Z,100.00
2022-08-03T02:07:09.066Z,100.00
2022-08-03T02:09:40.044Z,100.00
2022-08-03T02:12:10.377Z,100.00
2022-08-03T02:14:40.487Z,100.00
2022-08-03T02:17:11.587Z,100.00
2022-08-03T02:19:40.905Z,100.00
2022-08-03T02:22:13.212Z,100.00
2022-08-03T02:24:41.706Z,100.00
2022-08-03T02:27:21.250Z,100.00
2022-08-03T02:29:56.215Z,100.00
2022-08-03T02:32:31.673Z,100.00
2022-08-03T02:35:01.785Z,100.00
2022-08-03T02:37:35.446Z,100.00
2022-08-03T02:40:07.241Z,100.00
2022-08-03T02:42:38.053Z,100.00
2022-08-03T02:45:12.482Z,100.00
2022-08-03T02:47:54.035Z,100.00
2022-08-03T02:50:25.576Z,100.00
2022-08-03T02:52:56.188Z,100.00
2022-08-03T02:55:27.403Z,100.00
2022-08-03T02:57:56.890Z,100.00
2022-08-03T03:00:30.842Z,100.00
2022-08-03T03:03:04.055Z,100.00
2022-08-03T03:05:54.547Z,100.00
2022-08-03T03:08:26.885Z,100.00
2022-08-03T03:10:59.218Z,100.00
2022-08-03T03:13:29.346Z,100.00
2022-08-03T03:16:00.762Z,100.00
2022-08-03T03:18:32.134Z,100.00
2022-08-03T03:21:02.635Z,100.00
2022-08-03T03:23:31.892Z,100.00
2022-08-03T03:26:02.465Z,100.00
2022-08-03T03:28:31.728Z,100.00
2022-08-03T03:31:00.451Z,100.00
2022-08-03T03:33:28.821Z,100.00
2022-08-03T03:35:59.757Z,100.00
2022-08-03T03:38:27.999Z,100.00
2022-08-03T03:40:56.795Z,100.00
2022-08-03T03:43:25.432Z,100.00
2022-08-03T03:45:54.029Z,100.00
2022-08-03T03:48:22.312Z,100.00
2022-08-03T03:50:51.552Z,100.00
2022-08-03T03:53:21.060Z,100.00
2022-08-03T03:56:01.218Z,100.00
2022-08-03T03:58:32.198Z,100.00
2022-08-03T04:01:00.667Z,100.00
2022-08-03T04:03:29.136Z,100.00
2022-08-03T04:06:15.339Z,100.00
2022-08-03T04:09:02.490Z,100.00
2022-08-03T04:11:37.418Z,100.00
2022-08-03T04:14:10.208Z,100.00
2022-08-03T04:16:43.607Z,100.00
2022-08-03T04:19:22.610Z,100.00
2022-08-03T04:21:57.058Z,100.00
2022-08-03T04:24:32.051Z,100.00
2022-08-03T04:27:01.986Z,100.00
2022-08-03T04:29:34.363Z,100.00
2022-08-03T04:32:03.303Z,100.00
2022-08-03T04:34:32.048Z,100.00
2022-08-03T04:37:03.051Z,100.00
2022-08-03T04:39:34.010Z,100.00
2022-08-03T04:42:08.752Z,100.00
2022-08-03T04:44:39.049Z,100.00
2022-08-03T04:47:07.283Z,100.00
2022-08-03T04:49:37.482Z,100.00
2022-08-03T04:52:06.690Z,100.00
2022-08-03T04:54:42.818Z,100.00
2022-08-03T04:57:23.305Z,100.00
2022-08-03T05:00:01.021Z,100.00
2022-08-03T05:02:31.986Z,100.00
2022-08-03T05:05:00.263Z,100.00
2022-08-03T05:07:34.076Z,100.00
2022-08-03T05:10:14.833Z,100.00
2022-08-03T05:12:44.404Z,100.00
2022-08-03T05:15:12.996Z,100.00
2022-08-03T05:17:41.266Z,100.00
2022-08-03T05:20:10.594Z,100.00
2022-08-03T05:22:38.639Z,100.00
2022-08-03T05:25:08.855Z,100.00
2022-08-03T05:27:36.884Z,100.00
2022-08-03T05:30:31.110Z,100.00
2022-08-03T05:32:54.508Z,100.00
2022-08-03T05:36:01.934Z,100.00
2022-08-03T05:38:13.422Z,100.00
2022-08-03T05:40:57.290Z,100.00
2022-08-03T05:43:26.120Z,100.00
2022-08-03T05:46:11.596Z,100.00
2022-08-03T05:48:40.860Z,100.00
2022-08-03T05:51:11.673Z,100.00
2022-08-03T05:53:40.474Z,100.00
2022-08-03T05:56:13.758Z,100.00
2022-08-03T05:58:44.515Z,100.00
2022-08-03T06:01:12.678Z,100.00
2022-08-03T06:03:40.829Z,100.00
2022-08-03T06:06:09.054Z,100.00
2022-08-03T06:08:37.204Z,100.00
2022-08-03T06:11:05.225Z,100.00
2022-08-03T06:13:35.007Z,100.00
2022-08-03T06:16:03.338Z,100.00
2022-08-03T06:18:31.313Z,100.00
2022-08-03T06:21:14.891Z,100.00
2022-08-03T06:23:53.179Z,100.00
2022-08-03T06:26:23.143Z,100.00
2022-08-03T06:28:54.260Z,100.00
2022-08-03T06:31:24.155Z,100.00
2022-08-03T06:34:32.154Z,100.00
2022-08-03T06:36:40.810Z,100.00
2022-08-03T06:39:09.137Z,100.00
2022-08-03T06:41:38.127Z,100.00
2022-08-03T06:44:14.077Z,100.00
2022-08-03T06:46:43.315Z,100.00
2022-08-03T06:49:11.476Z,100.00
2022-08-03T06:52:06.089Z,99.62
2022-08-03T06:54:32.580Z,97.39
2022-08-03T06:57:01.167Z,96.47
2022-08-03T07:00:09.680Z,96.65
2022-08-03T07:02:20.403Z,96.28
2022-08-03T07:04:48.929Z,95.19
2022-08-03T07:07:17.448Z,93.31
2022-08-03T07:09:56.410Z,93.07
2022-08-03T07:12:26.291Z,93.30
2022-08-03T07:15:00.261Z,90.36
2022-08-03T07:17:29.070Z,89.27
2022-08-03T07:19:57.126Z,90.19
2022-08-03T07:22:25.420Z,88.33
2022-08-03T07:27:21.417Z,86.98
2022-08-03T07:29:49.505Z,85.98
2022-08-03T07:32:19.336Z,83.74
2022-08-03T07:34:47.750Z,83.56
2022-08-03T07:37:15.778Z,82.71
2022-08-03T07:39:43.910Z,82.62
2022-08-03T07:42:12.083Z,81.49
2022-08-03T07:44:42.187Z,83.09
2022-08-03T07:47:10.290Z,81.32
2022-08-03T07:49:51.848Z,80.75
2022-08-03T07:52:37.589Z,80.50
2022-08-03T07:55:07.433Z,78.22
2022-08-03T07:57:36.475Z,75.69
2022-08-03T08:00:07.505Z,76.10
2022-08-03T08:02:35.724Z,75.05
2022-08-03T08:05:06.170Z,75.31
2022-08-03T08:07:34.353Z,74.55
2022-08-03T08:10:02.402Z,73.09
2022-08-03T08:12:30.411Z,73.02
2022-08-03T08:14:58.522Z,71.56
2022-08-03T08:17:26.584Z,70.69
2022-08-03T08:19:54.766Z,69.28
2022-08-03T08:22:30.494Z,69.31
2022-08-03T08:25:01.279Z,68.36
2022-08-03T08:28:29.547Z,69.13
2022-08-03T08:30:20.247Z,68.82
2022-08-03T08:32:48.847Z,67.35
2022-08-03T08:35:18.002Z,67.38
2022-08-03T08:37:51.175Z,64.84
2022-08-03T08:40:22.785Z,64.01
2022-08-03T08:42:58.450Z,63.33
2022-08-03T08:45:27.533Z,62.74
2022-08-03T08:48:01.895Z,62.83
2022-08-03T08:50:31.992Z,63.36
2022-08-03T08:53:04.744Z,61.14
2022-08-03T08:55:56.952Z,59.88
2022-08-03T08:58:24.312Z,58.86
2022-08-03T09:00:52.776Z,58.75
2022-08-03T09:03:29.154Z,57.82
2022-08-03T09:06:01.260Z,57.90
2022-08-03T09:08:32.955Z,56.96
2022-08-03T09:11:01.317Z,55.59
2022-08-03T09:13:30.605Z,55.52
2022-08-03T09:16:15.363Z,53.74
2022-08-03T09:18:44.376Z,54.04
2022-08-03T09:21:31.855Z,53.53
2022-08-03T09:24:07.139Z,52.61
2022-08-03T09:26:38.807Z,53.20
2022-08-03T09:29:13.891Z,52.64
2022-08-03T09:31:45.081Z,52.52
2022-08-03T09:34:14.868Z,51.19
2022-08-03T09:36:44.779Z,52.29
2022-08-03T09:39:16.022Z,50.98
2022-08-03T09:41:45.522Z,50.92
2022-08-03T09:44:24.640Z,50.56
2022-08-03T09:46:57.258Z,48.73
2022-08-03T09:49:26.177Z,49.33
2022-08-03T09:52:31.296Z,49.13
2022-08-03T09:54:44.689Z,48.61
2022-08-03T09:57:23.971Z,47.79
2022-08-03T10:00:01.869Z,46.94
2022-08-03T10:02:33.449Z,48.06
2022-08-03T10:05:01.484Z,47.50
2022-08-03T10:07:29.492Z,45.94
2022-08-03T10:10:31.872Z,46.42
2022-08-03T10:12:49.295Z,45.08
2022-08-03T10:16:22.327Z,43.53
2022-08-03T10:18:06.235Z,44.86
2022-08-03T10:20:41.246Z,43.27
2022-08-03T10:23:09.982Z,41.39
2022-08-03T10:25:42.154Z,41.72
2022-08-03T10:28:16.161Z,43.27
2022-08-03T10:30:49.040Z,41.07
2022-08-03T10:33:51.082Z,42.90
2022-08-03T10:36:10.216Z,41.01
2022-08-03T10:38:41.581Z,40.74
2022-08-03T10:41:12.161Z,40.04
2022-08-03T10:43:49.039Z,41.08
2022-08-03T10:46:20.691Z,39.55
2022-08-03T10:48:51.733Z,39.61
2022-08-03T10:51:21.229Z,39.45
2022-08-03T10:53:54.530Z,37.24
2022-08-03T10:57:14.347Z,37.65
2022-08-03T11:00:00.548Z,36.52
2022-08-03T11:03:11.201Z,36.79
2022-08-03T11:05:41.968Z,36.40
2022-08-03T11:08:32.765Z,35.73
2022-08-03T11:11:23.610Z,36.58
2022-08-03T11:14:02.845Z,33.99
2022-08-03T11:16:32.533Z,34.08
2022-08-03T11:19:02.990Z,34.36
2022-08-03T11:22:00.011Z,35.98
2022-08-03T11:25:01.986Z,34.26
2022-08-03T11:27:31.917Z,34.47
2022-08-03T11:30:04.979Z,32.56
2022-08-03T11:33:01.661Z,33.02
2022-08-03T11:35:31.879Z,33.01
2022-08-03T11:38:08.251Z,32.58
2022-08-03T11:40:38.792Z,32.68
2022-08-03T11:43:08.542Z,32.20
2022-08-03T11:45:39.211Z,32.37
2022-08-03T11:48:17.911Z,32.28
2022-08-03T11:50:46.500Z,30.65
2022-08-03T11:53:19.622Z,32.07
2022-08-03T11:55:50.170Z,31.55
2022-08-03T11:59:11.043Z,29.67
2022-08-03T12:01:11.452Z,31.05
2022-08-03T12:03:39.580Z,29.61
2022-08-03T12:06:11.963Z,31.26
2022-08-03T12:08:40.689Z,29.55
2022-08-03T12:11:11.435Z,28.82
2022-08-03T12:14:26.825Z,29.93
2022-08-03T12:16:31.100Z,29.84
2022-08-03T12:19:00.549Z,28.73
2022-08-03T12:21:29.115Z,27.80
2022-08-03T12:24:01.223Z,27.57
2022-08-03T12:26:29.294Z,27.89
2022-08-03T12:28:57.533Z,27.79
2022-08-03T12:31:25.924Z,27.25
2022-08-03T12:34:02.886Z,28.02
2022-08-03T12:36:32.418Z,28.73
2022-08-03T12:39:02.485Z,28.20
2022-08-03T12:41:34.174Z,27.00
2022-08-03T12:44:04.202Z,27.21
2022-08-03T12:46:34.188Z,27.40
2022-08-03T12:49:08.684Z,27.42
2022-08-03T12:51:38.645Z,27.17
2022-08-03T12:54:07.320Z,27.70
2022-08-03T12:56:35.784Z,27.44
2022-08-03T12:59:32.353Z,25.77
2022-08-03T13:02:09.370Z,27.87
2022-08-03T13:04:39.291Z,27.51
2022-08-03T13:07:14.131Z,26.31
2022-08-03T13:09:44.246Z,26.10
2022-08-03T13:12:14.173Z,25.94
2022-08-03T13:14:42.847Z,25.37
2022-08-03T13:17:11.288Z,25.76
2022-08-03T13:19:41.432Z,25.80
2022-08-03T13:22:13.579Z,26.30
2022-08-03T13:24:42.052Z,25.28
2022-08-03T13:28:11.075Z,26.28
2022-08-03T13:29:59.100Z,25.63
2022-08-03T13:32:27.207Z,25.95
2022-08-03T13:34:56.613Z,26.97
2022-08-03T13:37:24.975Z,26.59
2022-08-03T13:39:58.932Z,26.93
2022-08-03T13:42:30.000Z,26.58
2022-08-03T13:44:58.392Z,26.52
2022-08-03T13:47:26.553Z,26.40
2022-08-03T13:50:00.072Z,26.70
2022-08-03T13:52:35.270Z,26.39
2022-08-03T13:55:05.052Z,26.47
2022-08-03T13:58:02.507Z,27.71
2022-08-03T14:00:28.190Z,27.25
2022-08-03T14:03:05.069Z,27.88
2022-08-03T14:05:38.313Z,27.91
2022-08-03T14:08:07.826Z,28.13
2022-08-03T14:10:38.595Z,28.69
2022-08-03T14:13:07.321Z,28.87
2022-08-03T14:15:38.172Z,29.02
2022-08-03T14:18:11.946Z,28.30
2022-08-03T14:20:50.236Z,28.30
2022-08-03T14:23:22.909Z,28.36
2022-08-03T14:25:52.288Z,27.85
2022-08-03T14:28:23.383Z,28.07
2022-08-03T14:30:52.450Z,28.49
2022-08-03T14:33:20.523Z,28.99
2022-08-03T14:35:50.145Z,28.66
2022-08-03T14:38:18.888Z,28.83
2022-08-03T14:40:47.330Z,29.13
2022-08-03T14:43:16.531Z,29.60
2022-08-03T14:45:45.189Z,30.57
2022-08-03T14:49:02.262Z,29.36
2022-08-03T14:51:02.883Z,30.44
2022-08-03T14:53:30.892Z,30.69
2022-08-03T14:55:58.972Z,31.43
2022-08-03T14:58:27.182Z,30.40
2022-08-03T15:00:56.717Z,31.23
2022-08-03T15:03:26.005Z,30.70
2022-08-03T15:05:55.571Z,31.22
2022-08-03T15:08:26.875Z,31.45
2022-08-03T15:10:55.591Z,31.39
2022-08-03T15:13:25.363Z,30.64
2022-08-03T15:15:53.467Z,30.99
2022-08-03T15:18:21.464Z,31.60
2022-08-03T15:20:50.862Z,31.80
2022-08-03T15:23:19.415Z,31.70
2022-08-03T15:26:04.210Z,31.34
2022-08-03T15:28:37.680Z,30.90
2022-08-03T15:31:06.514Z,32.60
2022-08-03T15:33:35.293Z,32.83
2022-08-03T15:36:04.029Z,33.01
2022-08-03T15:38:32.374Z,33.43
2022-08-03T15:41:01.733Z,32.86
2022-08-03T15:43:29.814Z,33.40
2022-08-03T15:46:27.793Z,33.77
2022-08-03T15:48:46.786Z,32.67
2022-08-03T15:51:15.184Z,33.16
2022-08-03T15:53:43.283Z,32.89
2022-08-03T15:56:18.132Z,33.00
2022-08-03T15:59:04.578Z,33.45
2022-08-03T16:01:35.639Z,33.60
2022-08-03T16:04:03.742Z,33.26
2022-08-03T16:06:35.085Z,34.05
2022-08-03T16:09:03.954Z,33.65
2022-08-03T16:11:33.488Z,32.90
2022-08-03T16:14:11.941Z,34.14
2022-08-03T16:16:49.255Z,33.78
2022-08-03T16:19:17.458Z,34.37
2022-08-03T16:21:48.849Z,34.86
2022-08-03T16:24:27.525Z,34.76
2022-08-03T16:26:57.914Z,35.09
2022-08-03T16:29:28.642Z,36.03
2022-08-03T16:31:56.575Z,35.77
2022-08-03T16:34:24.834Z,35.27
2022-08-03T16:36:54.661Z,35.08
2022-08-03T16:39:22.847Z,35.32
2022-08-03T16:41:54.360Z,35.19
2022-08-03T16:44:32.133Z,36.09
2022-08-03T16:47:00.737Z,35.80
2022-08-03T16:49:53.763Z,35.82
2022-08-03T16:52:17.909Z,36.51
2022-08-03T16:54:53.054Z,37.06
2022-08-03T16:57:58.189Z,37.18
2022-08-03T17:00:34.101Z,37.89
2022-08-03T17:03:04.542Z,38.00
2022-08-03T17:05:47.077Z,38.18
2022-08-03T17:08:15.831Z,38.15
2022-08-03T17:10:45.449Z,37.68
2022-08-03T17:13:20.738Z,37.79
2022-08-03T17:15:58.203Z,38.46
2022-08-03T17:18:33.150Z,39.14
2022-08-03T17:21:05.088Z,38.05
2022-08-03T17:23:42.254Z,38.74
2022-08-03T17:26:21.212Z,39.41
2022-08-03T17:28:57.395Z,38.74
2022-08-03T17:31:31.843Z,39.50
2022-08-03T17:34:04.471Z,39.27
2022-08-03T17:37:02.227Z,38.86
2022-08-03T17:39:36.162Z,39.92
2022-08-03T17:42:30.323Z,39.58
2022-08-03T17:45:01.924Z,40.10
2022-08-03T17:47:42.615Z,41.14
2022-08-03T17:50:24.047Z,40.87
2022-08-03T17:53:07.376Z,40.48
2022-08-03T17:55:55.778Z,40.88
2022-08-03T17:58:39.716Z,40.63
2022-08-03T18:02:06.122Z,40.95
2022-08-03T18:04:29.808Z,41.55
2022-08-03T18:07:00.521Z,41.72
2022-08-03T18:10:03.864Z,42.22
2022-08-03T18:12:38.414Z,41.98
2022-08-03T18:15:08.690Z,42.06
2022-08-03T18:18:02.186Z,42.21
2022-08-03T18:20:41.066Z,42.57
2022-08-03T18:23:24.801Z,42.74
2022-08-03T18:26:01.053Z,43.93
2022-08-03T18:28:29.666Z,45.96
2022-08-03T18:30:58.612Z,44.75
2022-08-03T18:34:19.155Z,45.92
2022-08-03T18:36:29.437Z,47.53
2022-08-03T18:39:01.793Z,46.28
2022-08-03T18:41:33.594Z,47.15
2022-08-03T18:44:09.594Z,46.50
2022-08-03T18:47:07.064Z,46.99
2022-08-03T18:49:43.206Z,47.50
2022-08-03T18:52:17.953Z,47.69
2022-08-03T18:55:01.078Z,48.11
2022-08-03T18:57:40.809Z,48.13
2022-08-03T19:00:14.118Z,48.25
2022-08-03T19:02:49.225Z,48.20
2022-08-03T19:05:20.426Z,49.46
2022-08-03T19:10:57.942Z,50.51
2022-08-03T19:13:40.413Z,50.21
2022-08-03T19:16:18.780Z,50.51
2022-08-03T19:18:49.942Z,51.12
2022-08-03T19:21:18.555Z,52.61
2022-08-03T19:23:49.867Z,54.65
2022-08-03T19:26:30.963Z,53.38
2022-08-03T19:29:00.095Z,53.04
2022-08-03T19:31:30.745Z,53.03
2022-08-03T19:34:00.342Z,53.24
2022-08-03T19:36:31.401Z,54.34
2022-08-03T19:39:03.267Z,54.46
2022-08-03T19:41:42.450Z,55.44
2022-08-03T19:44:12.507Z,55.27
2022-08-03T19:46:52.841Z,57.10
2022-08-03T19:49:24.312Z,58.01
2022-08-03T19:52:15.218Z,57.27
2022-08-03T19:54:53.672Z,58.12
2022-08-03T19:57:25.143Z,57.74
2022-08-03T19:59:54.892Z,58.10
2022-08-03T20:02:26.767Z,57.99
2022-08-03T20:04:57.349Z,58.56
2022-08-03T20:07:26.350Z,59.59
2022-08-03T20:09:57.025Z,59.94
2022-08-03T20:12:27.670Z,61.77
2022-08-03T20:14:58.510Z,61.62
2022-08-03T20:17:31.227Z,62.73
2022-08-03T20:20:15.604Z,62.16
2022-08-03T20:22:51.367Z,63.05
2022-08-03T20:28:26.836Z,63.51
2022-08-03T20:30:56.054Z,63.78
2022-08-03T20:33:27.582Z,64.72
2022-08-03T20:36:03.460Z,66.48
2022-08-03T20:38:31.634Z,66.11
2022-08-03T20:41:01.141Z,65.60
2022-08-03T20:43:29.256Z,67.12
2022-08-03T20:46:00.810Z,67.65
2022-08-03T20:48:48.715Z,68.04
2022-08-03T20:51:20.202Z,68.70
2022-08-03T20:53:57.032Z,68.81
2022-08-03T20:56:32.288Z,70.45
2022-08-03T20:59:03.039Z,70.65
2022-08-03T21:01:36.152Z,69.54
2022-08-03T21:04:06.780Z,67.50
2022-08-03T21:06:39.702Z,68.10
2022-08-03T21:09:09.914Z,69.76
2022-08-03T21:11:45.504Z,71.72
2022-08-03T21:13:01.365Z,49.13
2022-08-03T21:13:13.426Z,63.03
2022-08-03T21:14:19.950Z,71.41
2022-08-03T21:16:51.625Z,72.30
2022-08-03T21:19:22.395Z,72.05
2022-08-03T21:21:51.017Z,71.54
2022-08-03T21:24:22.755Z,72.35
2022-08-03T21:26:54.997Z,72.71
2022-08-03T21:29:24.604Z,72.67
2022-08-03T21:31:52.797Z,72.67
2022-08-03T21:34:21.816Z,73.26
2022-08-03T21:36:50.386Z,73.92
2022-08-03T21:39:18.823Z,74.96
2022-08-03T21:41:47.215Z,75.53
2022-08-03T21:44:25.263Z,76.19
2022-08-03T21:47:00.022Z,77.55
2022-08-03T21:50:05.846Z,76.62
2022-08-03T21:52:22.665Z,75.95
2022-08-03T21:54:55.258Z,76.05
2022-08-03T21:57:25.125Z,77.33
2022-08-03T21:59:57.894Z,77.37
2022-08-03T22:02:31.309Z,76.01
2022-08-03T22:05:00.592Z,76.87
2022-08-03T22:07:34.524Z,77.17
2022-08-03T22:10:04.220Z,77.91
2022-08-03T22:12:33.391Z,78.26
2022-08-03T22:15:05.483Z,78.21
2022-08-03T22:17:56.084Z,79.20
2022-08-03T22:20:23.362Z,79.28
2022-08-03T22:22:56.637Z,78.56
2022-08-03T22:25:29.088Z,79.02
2022-08-03T22:27:59.681Z,79.84
2022-08-03T22:30:29.610Z,80.03
2022-08-03T22:32:58.970Z,79.84
2022-08-03T22:35:28.540Z,80.13
2022-08-03T22:37:59.486Z,81.40
2022-08-03T22:40:28.810Z,81.01
2022-08-03T22:42:58.260Z,80.77
2022-08-03T22:46:06.817Z,81.38
2022-08-03T22:48:18.028Z,81.58
2022-08-03T22:50:47.530Z,81.83
2022-08-03T22:53:20.264Z,81.85
2022-08-03T22:55:49.441Z,82.36
2022-08-03T22:58:17.874Z,82.37
2022-08-03T23:00:53.761Z,82.39
2022-08-03T23:03:58.994Z,82.26
2022-08-03T23:06:17.309Z,82.83
2022-08-03T23:08:47.293Z,83.15
2022-08-03T23:11:17.991Z,83.13
2022-08-03T23:13:47.777Z,83.44
2022-08-03T23:16:27.944Z,84.14
2022-08-03T23:19:00.276Z,83.73
2022-08-03T23:21:53.733Z,83.92
2022-08-03T23:24:30.496Z,84.22
2022-08-03T23:26:59.375Z,84.04
2022-08-03T23:29:27.745Z,84.53
2022-08-03T23:31:57.376Z,84.71
2022-08-03T23:34:46.135Z,85.29
2022-08-03T23:37:15.507Z,85.34
2022-08-03T23:39:47.200Z,85.40
2022-08-03T23:42:18.172Z,85.30
2022-08-03T23:44:47.076Z,85.52
2022-08-03T23:47:15.407Z,85.58
2022-08-03T23:49:45.612Z,86.01
2022-08-03T23:52:19.928Z,85.89
2022-08-03T23:55:05.283Z,86.35
2022-08-03T23:57:44.325Z,86.33
